Terminal Aerodrome Forecast
Issued by NWS

Home | Current Version | Previous Version | Text Only | Print | Product List | Glossary On
Versions: 1 2 3 4 5 6 7 8 9 10 11 12 13 14 15 16 17 18 19 20
000
FTUS42 KGSP 241952 AAA
TAFGMU
TAF AMD
KGMU 241952Z 2420/2518 22012G19KT P6SM SCT045 BKN120
     FM242200 21005KT P6SM BKN045
     FM251100 20007KT P6SM BKN011
     FM251300 21010G20KT P6SM BKN009 PROB30 2513/2516 4SM -SHRA
      OVC004
     FM251600 22011G20KT P6SM -SHRA OVC011=

USA.gov is the U.S. government's official web portal to all federal, state and local government web resources and services.